Terminal Aerodrome Forecast
Issued by NWS Corpus Christi, TX

Home | Current Version | Previous Version | Text Only | Print | Product List | Glossary On
Versions: 1 2 3 4 5 6 7 8 9 10 11 12 13 14 15 16 17 18
000
FTUS44 KCRP 301512 AAB
TAFCRP
TAF AMD
KCRP 301512Z 3015/3112 VRB06KT P6SM VCTS SCT025CB BKN035
      TEMPO 3015/3016 VRB15G25KT 6SM TSRA BR BKN022CB
     FM301700 12012KT P6SM SCT040 BKN250
     FM310200 13008KT P6SM FEW020 BKN250
     FM310600 13005KT P6SM SCT010 BKN250=

USA.gov is the U.S. government's official web portal to all federal, state and local government web resources and services.